Relevés horaires Matro (Suisse)


Relevés horaires à Matro - Mercredi 07 Juill. 2021
Heure UTC1 Température [°C] Vent [km/h] Hum. [%] Pres.4 [hPa] Visi. [Km] Nébu. [octa] Préc.5 [mm] Cond.
2m. Res. Ros. Dir.2 Vit. Moy. Raf.3
23:00 9.9 5.9 8.6 SSE 38.9 -- 50.0 92 850(-0.1/3h) -- -- -- --
22:00 10.3 6.2 8.4 SSE 42.6 -- 63.0 88 850(0.4/3h) -- -- -- --
21:00 10.7 6.5 7.6 SE 48.2 -- 72.2 81 850(0.9/3h) -- -- -- --
20:00 10.5 6.6 7.8 SE 40.7 -- 51.9 83 850(1.2/3h) -- -- -- --
19:00 10.1 6 9.3 SE 42.6 -- 72.2 95 850(0.8/3h) -- -- -- --
18:00 9.6 4.6 9.1 SSE 59.3 -- 72.2 97 850(-0.4/3h) -- -- -- --
17:00 10.5 6.2 9.9 SSE 50.0 -- 70.4 96 850(-0.3/3h) -- -- -- --
16:00 10.8 6.8 10.7 SSE 44.4 -- 59.3 99 850(0.1/3h) -- -- -- --
15:00 10.7 6.8 9.8 SSE 42.6 -- 63.0 94 850(0.7/3h) -- -- -- --
14:00 10.5 6.4 9.8 SSE 44.4 -- 57.4 95 850(0.7/3h) -- -- -- --
13:00 10.3 6.2 9.6 SE 44.4 -- 59.3 95 850(0.8/3h) -- -- -- --
12:00 10.0 5.8 8.9 SSE 42.6 -- 59.3 93 850(0.8/3h) -- -- -- --
11:00 9.5 5.1 8.5 SSE 44.4 -- 55.6 93 850(0.6/3h) -- -- -- --
10:00 9.7 5.3 8.4 SE 46.3 -- 53.7 92 850(0.6/3h) -- -- -- --
09:00 9.8 5.4 7.8 SE 46.3 -- 59.3 87 850(1.0/3h) -- -- -- --
08:00 9.7 5.3 7.6 SE 44.4 -- 51.9 87 850(1.5/3h) -- -- -- --
07:00 9.1 4.4 8.3 SSE 46.3 -- 59.3 95 850(1.3/3h) -- -- -- --
06:00 9.4 4.7 8.4 SE 50.0 -- 88.9 93 850(0.8/3h) -- -- -- --
05:00 9.3 4.4 9.1 SE 53.7 -- 68.5 99 850(0.6/3h) -- -- -- --
04:00 9.5 4.7 9.2 SE 51.9 -- 68.5 98 850(0.3/3h) -- -- -- --
03:00 9.6 4.7 8.7 SE 55.6 -- 88.9 94 850(-0.5/3h) -- -- -- --
02:00 9.7 4.5 8.8 SSE 64.8 -- 88.9 94 850(-0.8/3h) -- -- -- --
01:00 10.2 5.5 9.9 SSE 57.4 -- 74.1 98 850(-0.6/3h) -- -- -- --
00:00 10.7 6.7 10.5 SSE 44.4 -- 72.2 99 850(-0.4/3h) -- -- -- --

1 Coordinated Universal Time. Actuellement il est 06:00 locale et 04:00 UTC.

2 Le vent souffle depuis la direction indiquée vers la direction oposée.

3 Les rafales max. sont disponible 40 min après l'heure du relevé.

4 Pour les stations d'altitude (plus de 600m) le géopotentiel du niveau le plus proche de la pression obligatoire est indiqué.

5 Les stations disposant d'un diffuseur peuvent indiquer "trace". Cela signifie que des précipitations ont touchés le sol mais que la quantité est inférieure à 0.1 mm.

Copyright

Les données affichées sur cette page sont la propriété exclusive de Météo Suisse.

Récapitulatif de la journée
Température [°C] Vent [km/h] Ensoleillement4 [h] Precipitations totale5 [mm] Pression [Hpa]
Min1 Max.2 Moy.3 Max. Min Max.
9.1 10.9 0 88.9 0 h 0 min 0 850.0 850.0

1 Température minimale relevée entre 18:00 UTC la veille et 18:00 UTC le jour donné.

2 Température maximale relevée entre 06:00 UTC le jour donné et 06:00 UTC le lendemain.

3 Vent moyen de la journée basé sur les relevés horaires.

4 Ensoleillement en heures relevé entre 06:00 UTC la veille et 06:00 UTC le jour donné.

5 Précipitations totales tombées entre 06:00 UTC la jour donné et 06:00 UTC le lendemain.

Graphiques horaires